Skip Navigation Links Skip Navigation Links

Current Weather

Cherry Capital, Traverse City, Mich.

For information only: do not use for flight planning or navigation.
Latest weather
Observation time Sunday, October 13, 2019 6:53 PM EDT
Local time Sunday, October 13, 2019 7:04 PM EDT
Flight conditions Visual Meteorological Conditions
Winds
Wind direction South-Southwest (210°)
Wind speed 7 mph
Visibility 10 mi.
Sky condition
Ceiling 10,000 ft. broken clouds
Cloud layer scattered clouds 4,800 ft.
Cloud layer broken clouds 10,000 ft.
Temperature 41°F
Dewpoint 35°F
Altimeter 29.74 in.Hg
Derived measurements
Relative humidity 79%
Wind chill 36°F
Density altitude -272 ft.
Sea-level pressure 29.75 in.Hg
Remarks
Automated weather observing station with precipitation discriminator.
METAR KTVC 132253Z 21006KT 10SM SCT048 BKN100 05/02 A2974 RMK AO2 SLP076 T00500017

Settings

Location code

InnerDrive.Weather 4.0.6770.0 Release CLR 4.0.30319.42000
Copyright ©2018 Inner Drive Technology. All rights reserved. Portions Copyright ©1986-2018 David Braverman.

Find weather

Site navigation


Skip Navigation Links

Place info

Page info

PayPal - The safer, easier way to pay online!

Return home.

Copyright ©2019 Inner Drive Technology. Purveyors of fine, hand-crafted computer software. Page printed 2019-10-13T23:04:44 UTC.